Meeting Normand 1 - NORMANDIE

Compétition Régionale

DEAUVILLE

Du Samedi 07 Fevrier 2009 au Dimanche 08 Fevrier 2009

Bassin de 50m

50 Nage Libre Dames

Finale A

Nom Année Temps Pts Club Pays
1 SEMENT Hélène 1990 0:27:72 1197 CN LE HAVRE FRA
2 LEDOUX Perle 1987 0:27:75 1195 CNP DE SAINT-LO FRA
3 HUBERT Hélène 1990 0:28:16 1168 EN CAEN FRA
4 SERRE Marie 1994 0:28:38 1154 RACING CLUB ARRAS FRA
5 SERRAND-BRIXTEL Alicia 1994 0:28:50 1146 EN CAEN FRA
6 FERREC Marion 1993 0:28:51 1145 CERCLE DES NAGEURS ST-BRIEUC FRA
7 MORIN Karen 1990 0:28:65 1136 UN PLOËRMEL FRA
8 LAFFITTE Béatrice 1992 0:28:75 1130 OCTEVILLE NATATION FRA
9 LEMAITRE Marine 1993 0:28:80 1126 CN CANTON BOLBEC FRA
10 MONNIER Laurine 1990 0:29:31 1094 ESPÉRANCE VAILLANTE GRANVILLE FRA
11 LUCAS Marine 1991 0:29:43 1087 CNP DE SAINT-LO FRA
12 FABRY Céline 1990 0:29:54 1080 CN FOUGÈRES FRA
13 TOPPET Victoria 1995 0:29:54 1080 MULHOUSE ON FRA
14 LOIR Ophélie 1995 0:29:88 1058 PONT-AUDEMER NAUTIC CLUB FRA
15 PORTRAIT Océane 1994 0:29:92 1056 OCTEVILLE NATATION FRA
16 LANNUZEL Morgane 1993 0:30:01 1050 CN VITRÉ FRA
17 LUCAS Océane 1993 0:30:13 1043 CNP DE SAINT-LO FRA
18 NOEL Alice 1991 0:30:20 1039 EN CAEN FRA
19 VALLEE Marina 1995 0:30:23 1037 CNP DE SAINT-LO FRA
20 SAVIN Clémentine 1992 0:30:39 1027 C VIKINGS DE ROUEN FRA
21 PALERO Fanny 1992 0:30:51 1020 CEPS DINAN-ARMOR FRA
22 MAZE Charlotte 1994 0:30:65 1011 RACING CLUB ARRAS FRA
23 HUGUET Christina 1994 0:30:76 1005 CNM DIEPPE FRA
24 LEROY Fanny 1993 0:31:30 972 CNM DIEPPE FRA

Séries

Nom Année Temps Pts Club Pays
1 LEDOUX Perle 1987 0:28:17 1167 CNP DE SAINT-LO FRA
2 HUBERT Hélène 1990 0:28:25 1162 EN CAEN FRA
3 SEMENT Hélène 1990 0:28:37 1154 CN LE HAVRE FRA
4 SERRAND-BRIXTEL Alicia 1994 0:28:74 1130 EN CAEN FRA
5 MORIN Karen 1990 0:28:81 1126 UN PLOËRMEL FRA
6 FERREC Marion 1993 0:29:05 1111 CERCLE DES NAGEURS ST-BRIEUC FRA
7 SERRE Marie 1994 0:29:07 1109 RACING CLUB ARRAS FRA
8 LUCAS Marine 1991 0:29:27 1097 CNP DE SAINT-LO FRA
9 MONNIER Laurine 1990 0:29:27 1097 ESPÉRANCE VAILLANTE GRANVILLE FRA
10 LEMAITRE Marine 1993 0:29:42 1087 CN CANTON BOLBEC FRA
11 FABRY Céline 1990 0:29:46 1085 CN FOUGÈRES FRA
12 LAFFITTE Béatrice 1992 0:29:62 1075 OCTEVILLE NATATION FRA
13 LANNUZEL Morgane 1993 0:29:80 1063 CN VITRÉ FRA
14 TOPPET Victoria 1995 0:29:85 1060 MULHOUSE ON FRA
15 NOEL Alice 1991 0:29:90 1057 EN CAEN FRA
16 LOIR Ophélie 1995 0:29:95 1054 PONT-AUDEMER NAUTIC CLUB FRA
17 PORTRAIT Océane 1994 0:30:00 1051 OCTEVILLE NATATION FRA
18 VALLEE Marina 1995 0:30:07 1047 CNP DE SAINT-LO FRA
19 CLEMENT Marine 1989 0:30:11 1044 ESPÉRANCE VAILLANTE GRANVILLE FRA
20 HUGUET Christina 1994 0:30:39 1027 CNM DIEPPE FRA
21 GOUX Inès 1991 0:30:43 1025 C VIKINGS DE ROUEN FRA
22 LUCAS Océane 1993 0:30:47 1022 CNP DE SAINT-LO FRA
23 PALERO Fanny 1992 0:30:56 1017 CEPS DINAN-ARMOR FRA
24 MAZE Charlotte 1994 0:30:59 1015 RACING CLUB ARRAS FRA
25 SAVIN Clémentine 1992 0:30:59 1015 C VIKINGS DE ROUEN FRA
26 LEROY Fanny 1993 0:30:67 1010 CNM DIEPPE FRA
27 GRUET Gwenaëlle 1993 0:30:68 1009 CN VITRÉ FRA
28 CHAU Jennifer 1992 0:30:71 1008 CNP DE SAINT-LO FRA
29 MARIN Kelly 1991 0:30:89 997 ALENÇON NC FRA
30 ROUMAGNAC Solène 1992 0:30:98 991 CN PACY ET ENVIRONS FRA
31 VALENTINE Célia 1993 0:31:00 990 CN PACY ET ENVIRONS FRA
32 BALANCHE Kelly 1996 0:31:07 986 CNP DE SAINT-LO FRA
33 TANGUY Margaux 1994 0:31:08 985 C VIKINGS DE ROUEN FRA
34 DELL'AIERA Alice 1994 0:31:20 978 BELGIQUE BEL
35 TRAORE Adèle 1995 0:31:28 973 CN FLERS FRA
36 LE BARBEY Aude 1994 0:31:36 969 CN COUTANCES FRA
37 LE MILLOUR Gladys 1991 0:31:37 968 CN COUTANCES FRA
38 TRANCHARD Louise 1994 0:31:56 957 CN CANTON BOLBEC FRA
39 GOYON Adele 1995 0:31:61 954 STADE ST-VALERY NATATION FRA
40 CARPENTIER Léonie 1993 0:31:63 953 STADE ST-VALERY NATATION FRA
41 GADOULET Mélanie 1994 0:31:63 953 UN PLOËRMEL FRA
42 FOREST Manon 1994 0:31:74 946 USM VIRE FRA
43 PERRARD Adeline 1994 0:32:11 925 USM VIRE FRA
44 PAIN Clarisse 1994 0:32:20 919 OLYMPIQUE ARGENTAN FRA
45 RAULT Isaline 1994 0:32:22 918 USM VIRE FRA
46 DELETOILE Romane 1994 0:32:26 916 OLYMPIQUE ARGENTAN FRA
47 ADAM Camille 1995 0:32:33 912 CNP DE SAINT-LO FRA
RACING CLUB ARRAS